sensor_id;sensor_type;location;lat;lon;timestamp;pressure;altitude;pressure_sealevel;temperature;humidity
5238;BME280;2639;49.700;7.962;2023-09-19T06:20:40;98526.75;;;15.93;100.00
5238;BME280;2639;49.700;7.962;2023-09-19T06:21:46;98527.63;;;15.94;100.00
5238;BME280;2639;49.700;7.962;2023-09-19T06:22:48;98526.19;;;15.99;100.00
5238;BME280;2639;49.700;7.962;2023-09-19T06:23:51;98519.34;;;16.01;100.00
5238;BME280;2639;49.700;7.962;2023-09-19T06:24:53;98523.88;;;16.05;100.00
5238;BME280;2639;49.700;7.962;2023-09-19T06:25:58;98531.97;;;16.11;100.00
5238;BME280;2639;49.700;7.962;2023-09-19T06:27:00;98525.94;;;16.12;100.00
5238;BME280;2639;49.700;7.962;2023-09-19T06:28:03;98535.44;;;16.12;99.57
5238;BME280;2639;49.700;7.962;2023-09-19T06:29:06;98538.91;;;16.12;98.40
5238;BME280;2639;49.700;7.962;2023-09-19T06:30:10;98538.91;;;16.12;97.62
5238;BME280;2639;49.700;7.962;2023-09-19T06:31:13;98535.75;;;16.18;97.66
5238;BME280;2639;49.700;7.962;2023-09-19T06:32:15;98537.41;;;16.17;97.03
5238;BME280;2639;49.700;7.962;2023-09-19T06:33:18;98534.59;;;16.13;97.02
5238;BME280;2639;49.700;7.962;2023-09-19T06:34:23;98535.66;;;16.16;97.23
5238;BME280;2639;49.700;7.962;2023-09-19T06:35:28;98545.38;;;16.20;96.97
5238;BME280;2639;49.700;7.962;2023-09-19T06:36:35;98539.06;;;16.15;95.49
5238;BME280;2639;49.700;7.962;2023-09-19T06:37:39;98539.97;;;16.16;94.56
5238;BME280;2639;49.700;7.962;2023-09-19T06:38:42;98548.84;;;16.21;95.20
5238;BME280;2639;49.700;7.962;2023-09-19T06:39:45;98546.47;;;16.26;95.80
5238;BME280;2639;49.700;7.962;2023-09-19T06:40:48;98546.78;;;16.32;96.02
5238;BME280;2639;49.700;7.962;2023-09-19T06:41:50;98556.91;;;16.27;95.86
5238;BME280;2639;49.700;7.962;2023-09-19T06:42:55;98554.03;;;16.21;93.44
5238;BME280;2639;49.700;7.962;2023-09-19T06:43:58;98558.47;;;16.24;93.72
5238;BME280;2639;49.700;7.962;2023-09-19T06:45:00;98556.53;;;16.19;93.78
5238;BME280;2639;49.700;7.962;2023-09-19T06:46:02;98558.16;;;16.17;92.17
5238;BME280;2639;49.700;7.962;2023-09-19T06:47:05;98560.59;;;16.14;92.00
5238;BME280;2639;49.700;7.962;2023-09-19T06:48:08;98553.78;;;16.16;92.37
5238;BME280;2639;49.700;7.962;2023-09-19T06:49:11;98560.59;;;16.14;91.83
5238;BME280;2639;49.700;7.962;2023-09-19T06:50:15;98563.41;;;16.19;92.41
5238;BME280;2639;49.700;7.962;2023-09-19T06:51:20;98556.84;;;16.26;92.86
5238;BME280;2639;49.700;7.962;2023-09-19T06:52:23;98546.84;;;16.33;93.32
5238;BME280;2639;49.700;7.962;2023-09-19T06:53:27;98552.09;;;16.35;93.35
5238;BME280;2639;49.700;7.962;2023-09-19T06:54:29;98559.22;;;16.39;92.80
5238;BME280;2639;49.700;7.962;2023-09-19T06:55:34;98556.91;;;16.45;93.39
5238;BME280;2639;49.700;7.962;2023-09-19T06:56:38;98559.81;;;16.51;92.21
5238;BME280;2639;49.700;7.962;2023-09-19T06:57:43;98561.72;;;16.55;92.54
5238;BME280;2639;49.700;7.962;2023-09-19T06:58:45;98564.47;;;16.58;91.49
5238;BME280;2639;49.700;7.962;2023-09-19T06:59:48;98568.84;;;16.59;89.90
5238;BME280;2639;49.700;7.962;2023-09-19T07:00:50;98566.41;;;16.62;89.77
5238;BME280;2639;49.700;7.962;2023-09-19T07:01:52;98565.72;;;16.67;89.36
5238;BME280;2639;49.700;7.962;2023-09-19T07:02:56;98567.19;;;16.61;88.38
5238;BME280;2639;49.700;7.962;2023-09-19T07:04:00;98568.84;;;16.59;88.71
5238;BME280;2639;49.700;7.962;2023-09-19T07:05:03;98578.31;;;16.59;90.03
5238;BME280;2639;49.700;7.962;2023-09-19T07:06:06;98575.34;;;16.51;88.12
5238;BME280;2639;49.700;7.962;2023-09-19T07:07:10;98572.03;;;16.54;88.02
5238;BME280;2639;49.700;7.962;2023-09-19T07:08:15;98577.44;;;16.58;88.15
5238;BME280;2639;49.700;7.962;2023-09-19T07:09:20;98574.16;;;16.62;88.05
5238;BME280;2639;49.700;7.962;2023-09-19T07:10:23;98576.91;;;16.66;88.20
5238;BME280;2639;49.700;7.962;2023-09-19T07:11:27;98577.88;;;16.68;87.51
5238;BME280;2639;49.700;7.962;2023-09-19T07:12:29;98579.06;;;16.74;87.41
5238;BME280;2639;49.700;7.962;2023-09-19T07:13:32;98579.38;;;16.80;87.41
5238;BME280;2639;49.700;7.962;2023-09-19T07:14:34;98571.34;;;16.76;87.00
5238;BME280;2639;49.700;7.962;2023-09-19T07:15:38;98574.75;;;16.75;86.02
5238;BME280;2639;49.700;7.962;2023-09-19T07:16:43;98571.34;;;16.76;85.80
5238;BME280;2639;49.700;7.962;2023-09-19T07:17:46;98576.53;;;16.76;86.09
5238;BME280;2639;49.700;7.962;2023-09-19T07:18:49;98598.09;;;16.75;86.27
5238;BME280;2639;49.700;7.962;2023-09-19T07:19:52;98582.69;;;16.78;86.41
5238;BME280;2639;49.700;7.962;2023-09-19T07:20:57;98592.09;;;16.76;83.67
5238;BME280;2639;49.700;7.962;2023-09-19T07:22:02;98591.53;;;16.81;84.79
5238;BME280;2639;49.700;7.962;2023-09-19T07:23:04;98594.34;;;16.86;85.27
5238;BME280;2639;49.700;7.962;2023-09-19T07:24:09;98592.03;;;16.92;85.01
5238;BME280;2639;49.700;7.962;2023-09-19T07:25:10;98597.91;;;16.88;82.40
5238;BME280;2639;49.700;7.962;2023-09-19T07:26:15;98598.19;;;16.94;83.78
5238;BME280;2639;49.700;7.962;2023-09-19T07:27:17;98606.19;;;16.99;83.82
5238;BME280;2639;49.700;7.962;2023-09-19T07:28:20;98601.00;;;16.99;82.87
5238;BME280;2639;49.700;7.962;2023-09-19T07:29:22;98601.72;;;16.96;83.64
5238;BME280;2639;49.700;7.962;2023-09-19T07:30:26;98603.38;;;16.94;82.45
5238;BME280;2639;49.700;7.962;2023-09-19T07:31:28;98598.03;;;16.91;83.49
5238;BME280;2639;49.700;7.962;2023-09-19T07:32:32;98601.66;;;16.95;83.84
5238;BME280;2639;49.700;7.962;2023-09-19T07:33:34;98610.47;;;16.98;84.00
5238;BME280;2639;49.700;7.962;2023-09-19T07:34:37;98614.03;;;17.00;84.43
5238;BME280;2639;49.700;7.962;2023-09-19T07:35:44;98612.41;;;17.02;84.76
5238;BME280;2639;49.700;7.962;2023-09-19T07:36:50;98623.19;;;17.12;84.22
5238;BME280;2639;49.700;7.962;2023-09-19T07:37:52;98627.59;;;17.13;83.31
5238;BME280;2639;49.700;7.962;2023-09-19T07:38:55;98626.63;;;17.11;82.89
5238;BME280;2639;49.700;7.962;2023-09-19T07:40:20;98625.38;;;17.02;81.00
5238;BME280;2639;49.700;7.962;2023-09-19T07:41:23;98632.63;;;16.92;80.74
5238;BME280;2639;49.700;7.962;2023-09-19T07:42:25;98628.19;;;16.89;81.41
5238;BME280;2639;49.700;7.962;2023-09-19T07:43:28;98641.25;;;16.91;81.71
5238;BME280;2639;49.700;7.962;2023-09-19T07:44:30;98637.59;;;16.87;80.06
5238;BME280;2639;49.700;7.962;2023-09-19T07:45:33;98637.59;;;16.87;80.94
5238;BME280;2639;49.700;7.962;2023-09-19T07:46:35;98635.22;;;16.92;81.91
5238;BME280;2639;49.700;7.962;2023-09-19T07:47:37;98636.28;;;16.95;81.31
5238;BME280;2639;49.700;7.962;2023-09-19T07:48:40;98638.03;;;16.96;81.02
5238;BME280;2639;49.700;7.962;2023-09-19T07:49:46;98641.59;;;16.98;80.43
5238;BME280;2639;49.700;7.962;2023-09-19T07:50:50;98641.47;;;16.95;79.43
5238;BME280;2639;49.700;7.962;2023-09-19T07:51:52;98633.00;;;16.99;80.17
5238;BME280;2639;49.700;7.962;2023-09-19T07:52:56;98645.31;;;17.03;79.10
5238;BME280;2639;49.700;7.962;2023-09-19T07:53:58;98641.00;;;17.04;79.72
5238;BME280;2639;49.700;7.962;2023-09-19T07:55:00;98642.72;;;17.03;79.24
5238;BME280;2639;49.700;7.962;2023-09-19T07:56:06;98635.06;;;17.07;80.38
5238;BME280;2639;49.700;7.962;2023-09-19T07:57:08;98647.09;;;17.04;79.13
5238;BME280;2639;49.700;7.962;2023-09-19T07:58:10;98637.69;;;17.07;78.78
5238;BME280;2639;49.700;7.962;2023-09-19T07:59:14;98642.13;;;17.09;79.42
5238;BME280;2639;49.700;7.962;2023-09-19T08:00:17;98647.38;;;17.11;80.23
5238;BME280;2639;49.700;7.962;2023-09-19T08:01:22;98640.69;;;17.16;78.01
5238;BME280;2639;49.700;7.962;2023-09-19T08:02:25;98647.81;;;17.20;77.20
5238;BME280;2639;49.700;7.962;2023-09-19T08:03:29;98641.66;;;17.18;77.57
5238;BME280;2639;49.700;7.962;2023-09-19T08:04:32;98653.00;;;17.20;76.90
5238;BME280;2639;49.700;7.962;2023-09-19T08:05:35;98652.03;;;17.18;76.85
5238;BME280;2639;49.700;7.962;2023-09-19T08:06:39;98648.78;;;17.22;76.30
5238;BME280;2639;49.700;7.962;2023-09-19T08:07:43;98667.84;;;17.22;75.43
5238;BME280;2639;49.700;7.962;2023-09-19T08:08:47;98658.47;;;17.26;75.87
5238;BME280;2639;49.700;7.962;2023-09-19T08:09:51;98653.56;;;17.32;76.15
5238;BME280;2639;49.700;7.962;2023-09-19T08:10:56;98655.75;;;17.42;75.78
5238;BME280;2639;49.700;7.962;2023-09-19T08:12:00;98650.72;;;17.45;74.77
5238;BME280;2639;49.700;7.962;2023-09-19T08:13:04;98657.00;;;17.51;75.09
5238;BME280;2639;49.700;7.962;2023-09-19T08:14:07;98653.03;;;17.59;75.72
5238;BME280;2639;49.700;7.962;2023-09-19T08:15:10;98656.25;;;17.73;75.99
5238;BME280;2639;49.700;7.962;2023-09-19T08:16:13;98661.03;;;17.81;74.35
5238;BME280;2639;49.700;7.962;2023-09-19T08:17:19;98663.06;;;17.88;74.28
5238;BME280;2639;49.700;7.962;2023-09-19T08:18:24;98652.69;;;17.88;72.45
5238;BME280;2639;49.700;7.962;2023-09-19T08:19:28;98654.53;;;17.91;72.45
5238;BME280;2639;49.700;7.962;2023-09-19T08:20:33;98656.38;;;17.94;71.48
5238;BME280;2639;49.700;7.962;2023-09-19T08:21:37;98658.16;;;17.95;71.33
5238;BME280;2639;49.700;7.962;2023-09-19T08:22:40;98670.59;;;18.02;71.74
5238;BME280;2639;49.700;7.962;2023-09-19T08:23:43;98649.53;;;17.96;71.25
5238;BME280;2639;49.700;7.962;2023-09-19T08:24:46;98661.72;;;17.97;71.45
5238;BME280;2639;49.700;7.962;2023-09-19T08:25:50;98669.56;;;17.98;71.22
5238;BME280;2639;49.700;7.962;2023-09-19T08:26:53;98657.75;;;17.85;69.69
5238;BME280;2639;49.700;7.962;2023-09-19T08:27:57;98660.56;;;17.90;71.73
5238;BME280;2639;49.700;7.962;2023-09-19T08:29:05;98661.56;;;17.94;72.04
5238;BME280;2639;49.700;7.962;2023-09-19T08:30:09;98667.78;;;17.97;71.35
5238;BME280;2639;49.700;7.962;2023-09-19T08:31:12;98670.72;;;18.05;71.20
5238;BME280;2639;49.700;7.962;2023-09-19T08:32:14;98666.56;;;18.08;70.50
5238;BME280;2639;49.700;7.962;2023-09-19T08:33:17;98671.28;;;18.17;71.15
5238;BME280;2639;49.700;7.962;2023-09-19T08:34:19;98671.69;;;18.07;68.80
5238;BME280;2639;49.700;7.962;2023-09-19T08:35:23;98669.75;;;18.03;69.09
5238;BME280;2639;49.700;7.962;2023-09-19T08:36:25;98670.47;;;17.99;69.09
5238;BME280;2639;49.700;7.962;2023-09-19T08:37:28;98666.16;;;17.99;69.35
5238;BME280;2639;49.700;7.962;2023-09-19T08:38:30;98665.13;;;17.96;68.74
5238;BME280;2639;49.700;7.962;2023-09-19T08:39:34;98665.81;;;17.92;70.00
5238;BME280;2639;49.700;7.962;2023-09-19T08:40:38;98667.91;;;18.00;70.93
5238;BME280;2639;49.700;7.962;2023-09-19T08:41:43;98672.75;;;18.12;71.90
5238;BME280;2639;49.700;7.962;2023-09-19T08:42:47;98677.78;;;18.28;70.97
5238;BME280;2639;49.700;7.962;2023-09-19T08:43:51;98680.56;;;18.32;69.33
5238;BME280;2639;49.700;7.962;2023-09-19T08:44:55;98672.88;;;18.35;68.75
5238;BME280;2639;49.700;7.962;2023-09-19T08:46:03;98681.72;;;18.38;67.48
5238;BME280;2639;49.700;7.962;2023-09-19T08:47:10;98677.63;;;18.45;69.28
5238;BME280;2639;49.700;7.962;2023-09-19T08:48:20;98680.31;;;18.46;68.28
5238;BME280;2639;49.700;7.962;2023-09-19T08:49:28;98670.53;;;18.41;69.03
5238;BME280;2639;49.700;7.962;2023-09-19T08:50:41;98677.28;;;18.36;70.27
5238;BME280;2639;49.700;7.962;2023-09-19T08:51:45;98677.88;;;18.30;68.04
5238;BME280;2639;49.700;7.962;2023-09-19T08:52:51;98684.66;;;18.26;69.10
5238;BME280;2639;49.700;7.962;2023-09-19T08:54:03;98687.00;;;18.20;68.87
5238;BME280;2639;49.700;7.962;2023-09-19T08:55:12;98686.19;;;18.02;67.45
5238;BME280;2639;49.700;7.962;2023-09-19T08:56:17;98685.91;;;17.96;68.25
5238;BME280;2639;49.700;7.962;2023-09-19T08:57:22;98684.13;;;17.95;68.58
5238;BME280;2639;49.700;7.962;2023-09-19T08:58:27;98682.63;;;18.00;69.64
5238;BME280;2639;49.700;7.962;2023-09-19T08:59:37;98688.50;;;17.96;69.23
5238;BME280;2639;49.700;7.962;2023-09-19T09:00:41;98693.03;;;18.00;69.07
5238;BME280;2639;49.700;7.962;2023-09-19T09:01:46;98685.31;;;18.01;68.21
5238;BME280;2639;49.700;7.962;2023-09-19T09:02:48;98684.00;;;18.11;68.78
5238;BME280;2639;49.700;7.962;2023-09-19T09:03:53;98684.28;;;18.17;68.22
5238;BME280;2639;49.700;7.962;2023-09-19T09:04:56;98682.06;;;18.26;68.83
5238;BME280;2639;49.700;7.962;2023-09-19T09:06:00;98683.72;;;18.24;68.48
5238;BME280;2639;49.700;7.962;2023-09-19T09:07:03;98689.44;;;18.37;67.96
5238;BME280;2639;49.700;7.962;2023-09-19T09:08:06;98677.91;;;18.51;69.02
5238;BME280;2639;49.700;7.962;2023-09-19T09:09:08;98673.38;;;18.68;67.23
5238;BME280;2639;49.700;7.962;2023-09-19T09:10:12;98682.56;;;18.79;67.94
5238;BME280;2639;49.700;7.962;2023-09-19T09:11:15;98675.81;;;18.84;66.80
5238;BME280;2639;49.700;7.962;2023-09-19T09:12:19;98674.25;;;18.88;66.18
5238;BME280;2639;49.700;7.962;2023-09-19T09:13:21;98666.75;;;18.96;65.12
5238;BME280;2639;49.700;7.962;2023-09-19T09:14:26;98672.72;;;18.93;64.76
5238;BME280;2639;49.700;7.962;2023-09-19T09:15:30;98672.72;;;18.93;64.50
5238;BME280;2639;49.700;7.962;2023-09-19T09:16:35;98670.69;;;18.86;64.62
5238;BME280;2639;49.700;7.962;2023-09-19T09:17:37;98668.94;;;18.85;64.75
5238;BME280;2639;49.700;7.962;2023-09-19T09:18:41;98670.81;;;18.89;65.47
5238;BME280;2639;49.700;7.962;2023-09-19T09:19:43;98673.66;;;18.95;66.47
5238;BME280;2639;49.700;7.962;2023-09-19T09:20:45;98673.75;;;18.97;64.99
5238;BME280;2639;49.700;7.962;2023-09-19T09:21:49;98663.25;;;18.95;65.77
5238;BME280;2639;49.700;7.962;2023-09-19T09:22:52;98671.56;;;19.07;66.55
5238;BME280;2639;49.700;7.962;2023-09-19T09:23:55;98678.66;;;19.11;65.55
5238;BME280;2639;49.700;7.962;2023-09-19T09:24:59;98669.09;;;19.10;66.21
5238;BME280;2639;49.700;7.962;2023-09-19T09:26:05;98663.94;;;19.12;65.30
5238;BME280;2639;49.700;7.962;2023-09-19T09:27:12;98669.09;;;19.10;65.15
5238;BME280;2639;49.700;7.962;2023-09-19T09:28:19;98675.25;;;19.12;65.06
5238;BME280;2639;49.700;7.962;2023-09-19T09:29:41;98662.28;;;19.14;64.33
5238;BME280;2639;49.700;7.962;2023-09-19T09:30:45;98671.81;;;19.13;63.89
5238;BME280;2639;49.700;7.962;2023-09-19T09:31:47;98676.25;;;19.16;63.14
5238;BME280;2639;49.700;7.962;2023-09-19T09:33:07;98669.31;;;19.17;63.40
5238;BME280;2639;49.700;7.962;2023-09-19T09:34:13;98668.50;;;19.18;62.62
5238;BME280;2639;49.700;7.962;2023-09-19T09:35:16;98672.69;;;19.14;61.91
5238;BME280;2639;49.700;7.962;2023-09-19T09:36:34;98673.94;;;19.24;63.25
5238;BME280;2639;49.700;7.962;2023-09-19T09:37:38;98668.03;;;19.28;62.77
5238;BME280;2639;49.700;7.962;2023-09-19T09:38:44;98676.19;;;19.37;62.84
5238;BME280;2639;49.700;7.962;2023-09-19T09:39:51;98676.44;;;19.43;61.67
5238;BME280;2639;49.700;7.962;2023-09-19T09:40:54;98671.22;;;19.43;62.08
5238;BME280;2639;49.700;7.962;2023-09-19T09:42:03;98667.69;;;19.41;63.21
5238;BME280;2639;49.700;7.962;2023-09-19T09:43:25;98668.13;;;19.53;62.95
5238;BME280;2639;49.700;7.962;2023-09-19T09:44:29;98662.28;;;19.59;61.91
5238;BME280;2639;49.700;7.962;2023-09-19T09:45:34;98665.09;;;19.65;61.51
5238;BME280;2639;49.700;7.962;2023-09-19T09:46:43;98665.53;;;19.76;61.98
5238;BME280;2639;49.700;7.962;2023-09-19T09:48:01;98665.78;;;19.82;61.38
5238;BME280;2639;49.700;7.962;2023-09-19T09:49:05;98653.91;;;19.90;60.78
5238;BME280;2639;49.700;7.962;2023-09-19T09:50:24;98656.50;;;19.90;60.36
5238;BME280;2639;49.700;7.962;2023-09-19T09:51:32;98652.91;;;19.87;60.56
5238;BME280;2639;49.700;7.962;2023-09-19T09:52:44;98669.09;;;19.78;60.08
5238;BME280;2639;49.700;7.962;2023-09-19T09:53:46;98666.16;;;19.69;60.18
5238;BME280;2639;49.700;7.962;2023-09-19T09:55:00;98666.72;;;19.62;60.68
5238;BME280;2639;49.700;7.962;2023-09-19T09:56:04;98669.25;;;19.60;60.76
5238;BME280;2639;49.700;7.962;2023-09-19T09:57:10;98666.47;;;19.55;62.37
5238;BME280;2639;49.700;7.962;2023-09-19T09:58:16;98674.88;;;19.48;61.58
5238;BME280;2639;49.700;7.962;2023-09-19T09:59:21;98674.53;;;19.39;60.18
5238;BME280;2639;49.700;7.962;2023-09-19T10:00:25;98668.16;;;19.31;59.34
5238;BME280;2639;49.700;7.962;2023-09-19T10:01:47;98672.88;;;19.41;60.23
5238;BME280;2639;49.700;7.962;2023-09-19T10:02:51;98668.81;;;19.48;60.96
5238;BME280;2639;49.700;7.962;2023-09-19T10:03:58;98665.25;;;19.46;60.08
5238;BME280;2639;49.700;7.962;2023-09-19T10:05:11;98673.94;;;19.46;59.43
5238;BME280;2639;49.700;7.962;2023-09-19T10:06:22;98660.81;;;19.43;60.81
5238;BME280;2639;49.700;7.962;2023-09-19T10:07:30;98677.16;;;19.39;59.39
5238;BME280;2639;49.700;7.962;2023-09-19T10:08:34;98679.84;;;19.42;60.54
5238;BME280;2639;49.700;7.962;2023-09-19T10:09:45;98688.41;;;19.38;57.21
5238;BME280;2639;49.700;7.962;2023-09-19T10:10:49;98686.13;;;19.25;56.84
5238;BME280;2639;49.700;7.962;2023-09-19T10:12:07;98679.38;;;19.30;57.91
5238;BME280;2639;49.700;7.962;2023-09-19T10:13:14;98683.06;;;19.35;58.69
5238;BME280;2639;49.700;7.962;2023-09-19T10:14:20;98677.06;;;19.38;56.77
5238;BME280;2639;49.700;7.962;2023-09-19T10:15:36;98676.91;;;19.33;58.13
5238;BME280;2639;49.700;7.962;2023-09-19T10:16:45;98675.97;;;19.31;59.31
5238;BME280;2639;49.700;7.962;2023-09-19T10:17:51;98680.94;;;19.25;57.33
5238;BME280;2639;49.700;7.962;2023-09-19T10:19:01;98677.72;;;19.32;58.43
5238;BME280;2639;49.700;7.962;2023-09-19T10:20:04;98682.94;;;19.32;58.72
5238;BME280;2639;49.700;7.962;2023-09-19T10:21:21;98677.47;;;19.26;58.91
5238;BME280;2639;49.700;7.962;2023-09-19T10:22:24;98685.47;;;19.30;59.55
5238;BME280;2639;49.700;7.962;2023-09-19T10:23:30;98675.72;;;19.25;59.99
5238;BME280;2639;49.700;7.962;2023-09-19T10:24:36;98681.44;;;19.16;58.80
5238;BME280;2639;49.700;7.962;2023-09-19T10:25:53;98683.00;;;19.11;60.50
5238;BME280;2639;49.700;7.962;2023-09-19T10:26:56;98675.09;;;19.09;60.87
5238;BME280;2639;49.700;7.962;2023-09-19T10:28:01;98688.97;;;19.08;60.81
5238;BME280;2639;49.700;7.962;2023-09-19T10:36:51;98662.56;;;19.89;59.51
5238;BME280;2639;49.700;7.962;2023-09-19T10:37:59;98668.44;;;20.08;59.96
5238;BME280;2639;49.700;7.962;2023-09-19T10:39:02;98669.97;;;20.27;59.39
5238;BME280;2639;49.700;7.962;2023-09-19T10:40:08;98662.78;;;20.45;58.93
5238;BME280;2639;49.700;7.962;2023-09-19T10:41:14;98659.47;;;20.51;56.65
5238;BME280;2639;49.700;7.962;2023-09-19T10:42:19;98657.94;;;20.56;56.88
5238;BME280;2639;49.700;7.962;2023-09-19T10:43:25;98654.41;;;20.54;55.43
5238;BME280;2639;49.700;7.962;2023-09-19T10:44:32;98648.56;;;20.61;55.97
5238;BME280;2639;49.700;7.962;2023-09-19T10:45:35;98652.94;;;20.62;56.19
5238;BME280;2639;49.700;7.962;2023-09-19T10:46:40;98646.16;;;20.67;56.25
5238;BME280;2639;49.700;7.962;2023-09-19T10:47:43;98644.41;;;20.68;56.17
5238;BME280;2639;49.700;7.962;2023-09-19T10:48:46;98662.00;;;20.73;56.54
5238;BME280;2639;49.700;7.962;2023-09-19T10:49:50;98660.34;;;20.75;56.20
5238;BME280;2639;49.700;7.962;2023-09-19T10:51:01;98660.38;;;20.77;56.41
5238;BME280;2639;49.700;7.962;2023-09-19T10:52:08;98658.47;;;20.71;55.98
5238;BME280;2639;49.700;7.962;2023-09-19T10:53:39;98668.06;;;20.72;56.41
5238;BME280;2639;49.700;7.962;2023-09-19T10:54:45;98651.06;;;20.58;55.87
5238;BME280;2639;49.700;7.962;2023-09-19T10:55:56;98664.59;;;20.48;56.59
5238;BME280;2639;49.700;7.962;2023-09-19T10:57:01;98658.34;;;20.43;57.02
5238;BME280;2639;49.700;7.962;2023-09-19T10:58:07;98660.84;;;20.39;57.04
5238;BME280;2639;49.700;7.962;2023-09-19T10:59:16;98650.53;;;20.43;57.36
5238;BME280;2639;49.700;7.962;2023-09-19T11:00:20;98653.28;;;20.47;57.76
5238;BME280;2639;49.700;7.962;2023-09-19T11:01:41;98651.97;;;20.58;58.31
5238;BME280;2639;49.700;7.962;2023-09-19T11:03:17;98647.00;;;20.42;56.87
5238;BME280;2639;49.700;7.962;2023-09-19T11:04:39;98650.22;;;20.33;58.68
5238;BME280;2639;49.700;7.962;2023-09-19T11:06:01;98647.47;;;20.30;58.53
5238;BME280;2639;49.700;7.962;2023-09-19T11:07:09;98660.09;;;20.18;57.95
5238;BME280;2639;49.700;7.962;2023-09-19T11:08:13;98645.59;;;20.01;57.37
5238;BME280;2639;49.700;7.962;2023-09-19T11:09:16;98652.34;;;19.95;57.79
5238;BME280;2639;49.700;7.962;2023-09-19T11:10:44;98648.25;;;19.78;58.06
5238;BME280;2639;49.700;7.962;2023-09-19T11:11:49;98648.53;;;19.63;58.35
5238;BME280;2639;49.700;7.962;2023-09-19T11:12:55;98651.91;;;19.61;59.30
5238;BME280;2639;49.700;7.962;2023-09-19T11:14:14;98647.28;;;19.53;59.32
5238;BME280;2639;49.700;7.962;2023-09-19T11:28:30;98630.47;;;20.16;57.18
5238;BME280;2639;49.700;7.962;2023-09-19T11:29:33;98630.59;;;20.19;57.77
5238;BME280;2639;49.700;7.962;2023-09-19T11:30:38;98627.25;;;20.23;57.28
5238;BME280;2639;49.700;7.962;2023-09-19T11:31:43;98616.94;;;20.26;58.05
5238;BME280;2639;49.700;7.962;2023-09-19T11:34:37;98617.66;;;20.48;57.03
5238;BME280;2639;49.700;7.962;2023-09-19T11:35:59;98616.56;;;20.67;57.12
5238;BME280;2639;49.700;7.962;2023-09-19T11:37:02;98616.72;;;20.71;57.35
5238;BME280;2639;49.700;7.962;2023-09-19T11:38:06;98622.28;;;20.82;57.46
5238;BME280;2639;49.700;7.962;2023-09-19T11:39:25;98613.56;;;20.81;56.66
5238;BME280;2639;49.700;7.962;2023-09-19T11:40:28;98619.69;;;20.82;56.74
5238;BME280;2639;49.700;7.962;2023-09-19T11:41:36;98609.56;;;20.93;56.24
5238;BME280;2639;49.700;7.962;2023-09-19T11:42:42;98611.34;;;20.94;55.10
5238;BME280;2639;49.700;7.962;2023-09-19T11:43:46;98604.09;;;20.85;53.66
5238;BME280;2639;49.700;7.962;2023-09-19T11:44:49;98595.13;;;20.77;54.17
5238;BME280;2639;49.700;7.962;2023-09-19T11:46:04;98604.84;;;20.55;54.98
5238;BME280;2639;49.700;7.962;2023-09-19T11:47:07;98608.75;;;20.67;55.94
5238;BME280;2639;49.700;7.962;2023-09-19T11:48:12;98617.59;;;20.72;56.56
5238;BME280;2639;49.700;7.962;2023-09-19T11:49:15;98611.00;;;20.83;55.17
5238;BME280;2639;49.700;7.962;2023-09-19T11:50:23;98614.69;;;20.90;54.74
5238;BME280;2639;49.700;7.962;2023-09-19T11:51:26;98615.63;;;20.92;53.76
5238;BME280;2639;49.700;7.962;2023-09-19T11:52:31;98615.22;;;21.07;55.73
5238;BME280;2639;49.700;7.962;2023-09-19T11:53:36;98606.88;;;21.18;54.21
5238;BME280;2639;49.700;7.962;2023-09-19T11:54:43;98602.78;;;21.27;55.07
5238;BME280;2639;49.700;7.962;2023-09-19T11:55:49;98617.16;;;21.41;54.04
5238;BME280;2639;49.700;7.962;2023-09-19T11:56:52;98601.53;;;21.42;53.07
5238;BME280;2639;49.700;7.962;2023-09-19T11:57:56;98589.50;;;21.19;51.23
5238;BME280;2639;49.700;7.962;2023-09-19T11:59:00;98607.44;;;21.08;51.44
5238;BME280;2639;49.700;7.962;2023-09-19T12:00:03;98609.31;;;21.12;52.05
5238;BME280;2639;49.700;7.962;2023-09-19T12:01:13;98599.22;;;21.25;52.10
5238;BME280;2639;49.700;7.962;2023-09-19T12:02:30;98615.47;;;21.43;51.73
5238;BME280;2639;49.700;7.962;2023-09-19T12:03:37;98610.53;;;21.52;51.35
5238;BME280;2639;49.700;7.962;2023-09-19T12:04:45;98603.63;;;21.54;50.78
5238;BME280;2639;49.700;7.962;2023-09-19T12:05:51;98606.09;;;21.50;51.04
5238;BME280;2639;49.700;7.962;2023-09-19T12:06:56;98613.81;;;21.45;52.18
5238;BME280;2639;49.700;7.962;2023-09-19T12:07:58;98609.38;;;21.42;53.83
5238;BME280;2639;49.700;7.962;2023-09-19T12:09:02;98603.34;;;21.45;51.73
5238;BME280;2639;49.700;7.962;2023-09-19T12:10:09;98605.31;;;21.52;52.07
5238;BME280;2639;49.700;7.962;2023-09-19T12:11:14;98620.19;;;21.55;52.89
5238;BME280;2639;49.700;7.962;2023-09-19T12:12:19;98620.47;;;21.37;52.15
5238;BME280;2639;49.700;7.962;2023-09-19T12:13:22;98602.19;;;21.37;52.97
5238;BME280;2639;49.700;7.962;2023-09-19T12:14:26;98616.03;;;21.33;52.72
5238;BME280;2639;49.700;7.962;2023-09-19T12:15:29;98608.88;;;21.27;52.42
5238;BME280;2639;49.700;7.962;2023-09-19T12:16:36;98613.03;;;21.20;51.78
5238;BME280;2639;49.700;7.962;2023-09-19T12:17:41;98612.84;;;21.14;52.13
5238;BME280;2639;49.700;7.962;2023-09-19T12:18:44;98615.41;;;21.13;52.56
5238;BME280;2639;49.700;7.962;2023-09-19T12:19:50;98612.75;;;21.11;53.10
5238;BME280;2639;49.700;7.962;2023-09-19T12:20:54;98605.75;;;21.10;53.08
5238;BME280;2639;49.700;7.962;2023-09-19T12:21:57;98607.72;;;21.17;53.33
5238;BME280;2639;49.700;7.962;2023-09-19T12:23:01;98601.69;;;21.20;52.32
5238;BME280;2639;49.700;7.962;2023-09-19T12:24:04;98594.72;;;21.19;51.51
5238;BME280;2639;49.700;7.962;2023-09-19T12:25:06;98609.00;;;21.32;52.39
5238;BME280;2639;49.700;7.962;2023-09-19T12:26:12;98592.59;;;21.36;52.31
5238;BME280;2639;49.700;7.962;2023-09-19T12:27:15;98599.81;;;21.43;51.25
5238;BME280;2639;49.700;7.962;2023-09-19T12:28:18;98600.00;;;21.49;52.62
5238;BME280;2639;49.700;7.962;2023-09-19T12:29:20;98596.59;;;21.53;51.52
5238;BME280;2639;49.700;7.962;2023-09-19T12:30:28;98605.63;;;21.64;51.34
5238;BME280;2639;49.700;7.962;2023-09-19T12:31:34;98589.13;;;21.66;50.72
5238;BME280;2639;49.700;7.962;2023-09-19T12:32:39;98606.63;;;21.68;51.15
5238;BME280;2639;49.700;7.962;2023-09-19T12:33:43;98607.50;;;21.69;51.28
5238;BME280;2639;49.700;7.962;2023-09-19T12:34:50;98609.94;;;21.62;50.70
5238;BME280;2639;49.700;7.962;2023-09-19T12:35:54;98602.09;;;21.62;50.96
5238;BME280;2639;49.700;7.962;2023-09-19T12:37:05;98605.03;;;21.73;51.52
5238;BME280;2639;49.700;7.962;2023-09-19T12:38:24;98600.75;;;21.77;51.24
5238;BME280;2639;49.700;7.962;2023-09-19T12:39:29;98601.47;;;21.71;50.99
5238;BME280;2639;49.700;7.962;2023-09-19T12:40:32;98596.19;;;21.68;51.52